Time;durP1;ratioP1;P1;durP2;ratioP2;P2;SDS_P1;SDS_P2;PMS_P1;PMS_P2;Temp;Humidity;BMP_temperature;BMP_pressure;BME280_temperature;BME280_humidity;BME280_pressure;Samples;Min_cycle;Max_cycle;Signal;HPM_P1;HPM_P2
2023/07/22 00:02:24;;;;;;;8.32;5.40;;;;;;;;;;6303354;22;20026;-66
2023/07/22 00:04:50;;;;;;;8.93;5.15;;;;;;;;;;6302550;22;20085;-67
2023/07/22 00:07:16;;;;;;;9.55;5.18;;;;;;;;;;6305302;22;20415;-67
2023/07/22 00:09:43;;;;;;;9.20;5.13;;;;;;;;;;6277334;22;20444;-67
2023/07/22 00:12:09;;;;;;;11.90;6.22;;;;;;;;;;6304411;22;20467;-68
2023/07/22 00:14:41;;;;;;;10.00;5.55;;;;;;;;;;6277993;22;20012;-67
2023/07/22 00:17:07;;;;;;;11.25;5.45;;;;;;;;;;6305200;22;20007;-67
2023/07/22 00:19:33;;;;;;;11.40;6.60;;;;;;;;;;6304574;22;20083;-67
2023/07/22 00:21:59;;;;;;;7.65;5.53;;;;;;;;;;6304699;22;20014;-66
2023/07/22 00:24:25;;;;;;;9.20;5.35;;;;;;;;;;6304295;22;20014;-67
2023/07/22 00:26:51;;;;;;;9.38;5.65;;;;;;;;;;6304772;22;20099;-67
2023/07/22 00:29:17;;;;;;;11.38;5.18;;;;;;;;;;6303380;22;20015;-67
2023/07/22 00:31:43;;;;;;;10.68;5.18;;;;;;;;;;6277255;22;20104;-67
2023/07/22 00:34:10;;;;;;;12.23;5.93;;;;;;;;;;6276628;22;20090;-67
2023/07/22 00:36:37;;;;;;;11.45;6.03;;;;;;;;;;6304484;22;20060;-66
2023/07/22 00:39:03;;;;;;;8.80;5.22;;;;;;;;;;6303204;22;20039;-67
2023/07/22 00:41:29;;;;;;;7.05;5.55;;;;;;;;;;6277165;22;20426;-67
2023/07/22 00:43:55;;;;;;;8.85;4.82;;;;;;;;;;6303910;22;20011;-67
2023/07/22 00:46:20;;;;;;;11.43;6.07;;;;;;;;;;6302827;22;20062;-67
2023/07/22 00:48:47;;;;;;;8.80;5.68;;;;;;;;;;6277148;22;20069;-67
2023/07/22 00:51:13;;;;;;;10.68;5.88;;;;;;;;;;6303359;22;20007;-67
2023/07/22 00:53:38;;;;;;;9.98;6.10;;;;;;;;;;6304276;22;20089;-67
2023/07/22 00:56:04;;;;;;;9.73;5.97;;;;;;;;;;6302516;22;20023;-68
2023/07/22 00:58:30;;;;;;;10.38;5.95;;;;;;;;;;6276931;22;20089;-66
2023/07/22 01:00:56;;;;;;;12.73;5.70;;;;;;;;;;6277119;22;20153;-67
2023/07/22 01:03:22;;;;;;;9.98;6.15;;;;;;;;;;6303647;22;20045;-67
2023/07/22 01:05:49;;;;;;;10.48;5.85;;;;;;;;;;6302508;22;20003;-67
2023/07/22 01:08:16;;;;;;;15.80;5.95;;;;;;;;;;6304215;22;20014;-66
2023/07/22 01:10:43;;;;;;;8.75;5.78;;;;;;;;;;6301786;22;20341;-67
2023/07/22 01:13:09;;;;;;;8.63;5.78;;;;;;;;;;6302491;22;20003;-66
2023/07/22 01:15:35;;;;;;;9.93;5.63;;;;;;;;;;6250175;22;20011;-66
2023/07/22 01:18:03;;;;;;;10.38;5.55;;;;;;;;;;6275869;22;20023;-67
2023/07/22 01:20:30;;;;;;;10.20;5.78;;;;;;;;;;6276393;22;20133;-67
2023/07/22 01:22:56;;;;;;;13.50;6.05;;;;;;;;;;6275878;22;20098;-67
2023/07/22 01:25:23;;;;;;;9.15;5.57;;;;;;;;;;6273682;22;20012;-67
2023/07/22 01:27:50;;;;;;;16.67;5.53;;;;;;;;;;6303336;22;20388;-67
2023/07/22 01:30:16;;;;;;;7.10;4.80;;;;;;;;;;6304122;22;20425;-67
2023/07/22 01:32:42;;;;;;;12.05;5.47;;;;;;;;;;6304129;22;20011;-67
2023/07/22 01:35:09;;;;;;;10.80;5.60;;;;;;;;;;6303838;22;20319;-67
2023/07/22 01:37:35;;;;;;;10.40;6.13;;;;;;;;;;6303673;22;20027;-67
2023/07/22 01:40:11;;;;;;;9.98;6.60;;;;;;;;;;6276360;22;20026;-68
2023/07/22 01:42:38;;;;;;;8.65;5.68;;;;;;;;;;6303833;22;20314;-67
2023/07/22 01:45:07;;;;;;;10.90;5.60;;;;;;;;;;6275841;22;20015;-67
2023/07/22 01:47:37;;;;;;;16.20;5.72;;;;;;;;;;6303774;22;20267;-68
2023/07/22 01:50:04;;;;;;;8.23;5.75;;;;;;;;;;6301745;22;20037;-67
2023/07/22 01:52:29;;;;;;;8.02;5.65;;;;;;;;;;6275626;22;20437;-67
2023/07/22 01:54:55;;;;;;;10.10;5.78;;;;;;;;;;6302436;22;20029;-67
2023/07/22 01:57:21;;;;;;;8.63;5.68;;;;;;;;;;6303924;22;20042;-67
2023/07/22 01:59:47;;;;;;;9.20;5.90;;;;;;;;;;6302401;22;20090;-67
2023/07/22 02:02:13;;;;;;;12.48;5.78;;;;;;;;;;6275649;22;20015;-66
2023/07/22 02:04:39;;;;;;;12.45;6.28;;;;;;;;;;6303531;22;20022;-67
2023/07/22 02:07:05;;;;;;;8.65;5.65;;;;;;;;;;6275894;22;20007;-66
2023/07/22 02:09:33;;;;;;;8.18;5.72;;;;;;;;;;6303591;22;20011;-67
2023/07/22 02:11:59;;;;;;;9.05;5.95;;;;;;;;;;6275979;22;20011;-66
2023/07/22 02:14:24;;;;;;;9.05;5.78;;;;;;;;;;6303238;22;20031;-66
2023/07/22 02:16:50;;;;;;;9.95;6.13;;;;;;;;;;6303652;22;20018;-66
2023/07/22 02:19:16;;;;;;;9.07;6.00;;;;;;;;;;6276174;22;20457;-65
2023/07/22 02:21:42;;;;;;;13.63;7.05;;;;;;;;;;6303550;22;20006;-67
2023/07/22 02:24:08;;;;;;;13.48;6.47;;;;;;;;;;6275626;22;20038;-67
2023/07/22 02:26:34;;;;;;;10.20;6.32;;;;;;;;;;6275919;22;20015;-67
2023/07/22 02:29:00;;;;;;;10.00;6.43;;;;;;;;;;6275703;22;20449;-66
2023/07/22 02:31:25;;;;;;;11.43;5.95;;;;;;;;;;6303558;22;20536;-67
2023/07/22 02:33:51;;;;;;;10.45;6.45;;;;;;;;;;6303115;22;20011;-67
2023/07/22 02:36:17;;;;;;;11.05;6.40;;;;;;;;;;6250690;22;20035;-66
2023/07/22 02:38:43;;;;;;;10.20;6.38;;;;;;;;;;6303403;22;20014;-66
2023/07/22 02:41:12;;;;;;;10.98;6.22;;;;;;;;;;6303200;22;20003;-66
2023/07/22 02:43:38;;;;;;;10.55;6.28;;;;;;;;;;6275618;22;20291;-67
2023/07/22 02:46:07;;;;;;;12.15;6.20;;;;;;;;;;6301518;22;20015;-66
2023/07/22 02:48:34;;;;;;;9.48;6.50;;;;;;;;;;6276044;22;20026;-67
2023/07/22 02:51:04;;;;;;;9.60;7.00;;;;;;;;;;6275959;22;20327;-67
2023/07/22 02:53:31;;;;;;;12.75;6.35;;;;;;;;;;6275255;22;20444;-66
2023/07/22 02:55:57;;;;;;;9.18;6.68;;;;;;;;;;6275619;22;20082;-67
2023/07/22 02:58:23;;;;;;;10.40;6.70;;;;;;;;;;6304800;22;20031;-67
2023/07/22 03:00:48;;;;;;;14.93;7.25;;;;;;;;;;6305174;22;20018;-66
2023/07/22 03:03:14;;;;;;;12.93;7.07;;;;;;;;;;6303472;22;20011;-67
2023/07/22 03:05:40;;;;;;;11.65;6.50;;;;;;;;;;6305114;22;20297;-67
2023/07/22 03:08:06;;;;;;;12.43;7.50;;;;;;;;;;6303418;22;20514;-67
2023/07/22 03:10:33;;;;;;;14.18;7.55;;;;;;;;;;6305746;22;20011;-67
2023/07/22 03:12:59;;;;;;;8.98;7.07;;;;;;;;;;6277851;22;20021;-67
2023/07/22 03:15:26;;;;;;;9.95;7.10;;;;;;;;;;6252442;22;20074;-67
2023/07/22 03:17:52;;;;;;;9.50;6.78;;;;;;;;;;6305449;22;20011;-67
2023/07/22 03:20:19;;;;;;;12.98;6.68;;;;;;;;;;6303637;22;20014;-67
2023/07/22 03:22:46;;;;;;;13.00;6.60;;;;;;;;;;6276873;22;20015;-67
2023/07/22 03:25:13;;;;;;;12.55;6.90;;;;;;;;;;6305095;22;20006;-66
2023/07/22 03:27:39;;;;;;;13.25;7.25;;;;;;;;;;6305331;22;20009;-66
2023/07/22 03:30:10;;;;;;;9.18;6.63;;;;;;;;;;6277745;22;20082;-67
2023/07/22 03:32:36;;;;;;;10.38;7.05;;;;;;;;;;6302944;22;20015;-67
2023/07/22 03:35:03;;;;;;;14.73;7.32;;;;;;;;;;6277656;22;20494;-67
2023/07/22 03:37:29;;;;;;;11.52;7.43;;;;;;;;;;6305312;22;20015;-67
2023/07/22 03:39:55;;;;;;;13.57;6.72;;;;;;;;;;6305646;22;20015;-68
2023/07/22 03:42:21;;;;;;;11.10;6.47;;;;;;;;;;6304465;22;20429;-67
2023/07/22 03:44:46;;;;;;;16.20;6.53;;;;;;;;;;6304863;22;20007;-67
2023/07/22 03:47:12;;;;;;;12.38;7.00;;;;;;;;;;6303245;22;20084;-67
2023/07/22 03:49:38;;;;;;;12.50;7.25;;;;;;;;;;6304543;22;20448;-67
2023/07/22 03:52:04;;;;;;;17.13;8.10;;;;;;;;;;6251368;22;20308;-66
2023/07/22 03:54:30;;;;;;;17.33;8.55;;;;;;;;;;6277137;22;20086;-66
2023/07/22 03:56:56;;;;;;;13.05;7.40;;;;;;;;;;6305154;22;20035;-67
2023/07/22 03:59:22;;;;;;;13.65;7.28;;;;;;;;;;6304618;22;20038;-67
2023/07/22 04:01:47;;;;;;;13.40;7.35;;;;;;;;;;6304991;22;20138;-66
2023/07/22 04:04:13;;;;;;;12.55;8.10;;;;;;;;;;6277247;22;20470;-66
2023/07/22 04:06:39;;;;;;;16.65;7.30;;;;;;;;;;6277516;22;20010;-67
2023/07/22 04:09:05;;;;;;;13.55;6.25;;;;;;;;;;6277679;22;20015;-67
2023/07/22 04:11:30;;;;;;;14.10;6.90;;;;;;;;;;6305589;22;20422;-67
2023/07/22 04:13:56;;;;;;;15.45;7.50;;;;;;;;;;6280039;22;20026;-67
2023/07/22 04:16:23;;;;;;;29.55;8.50;;;;;;;;;;6307732;22;20061;-67
2023/07/22 04:18:49;;;;;;;12.70;7.82;;;;;;;;;;6280270;22;20380;-67
2023/07/22 04:21:15;;;;;;;14.77;8.32;;;;;;;;;;6307814;22;20373;-67
2023/07/22 04:23:40;;;;;;;15.90;8.40;;;;;;;;;;6279820;22;20003;-67
2023/07/22 04:26:07;;;;;;;15.55;8.25;;;;;;;;;;6307283;22;20007;-68
2023/07/22 04:28:34;;;;;;;21.65;9.13;;;;;;;;;;6308166;22;20003;-68
2023/07/22 04:31:00;;;;;;;17.30;7.90;;;;;;;;;;6279854;22;20015;-67
2023/07/22 04:33:27;;;;;;;19.30;8.95;;;;;;;;;;6307092;22;20054;-67
2023/07/22 04:35:55;;;;;;;18.30;8.15;;;;;;;;;;6307277;22;20382;-67
2023/07/22 04:38:21;;;;;;;13.23;7.35;;;;;;;;;;6279847;22;20011;-67
2023/07/22 04:40:47;;;;;;;15.13;6.95;;;;;;;;;;6307182;22;20486;-67
2023/07/22 04:43:13;;;;;;;24.35;7.85;;;;;;;;;;6306990;22;20003;-67
2023/07/22 04:45:41;;;;;;;15.30;7.07;;;;;;;;;;6307046;22;20006;-66
2023/07/22 04:48:07;;;;;;;20.80;7.53;;;;;;;;;;6279788;22;20011;-66
2023/07/22 04:50:33;;;;;;;9.40;6.40;;;;;;;;;;6307351;22;20061;-67
2023/07/22 04:52:59;;;;;;;12.95;6.85;;;;;;;;;;6307027;22;20337;-66
2023/07/22 04:55:26;;;;;;;13.10;6.85;;;;;;;;;;6279603;22;19999;-66
2023/07/22 04:57:51;;;;;;;16.45;6.18;;;;;;;;;;6306894;22;20007;-67
2023/07/22 05:00:18;;;;;;;15.48;6.78;;;;;;;;;;6306739;22;20018;-66
2023/07/22 05:02:46;;;;;;;15.32;6.68;;;;;;;;;;6306710;22;20003;-66
2023/07/22 05:05:18;;;;;;;14.63;6.60;;;;;;;;;;6306979;22;20015;-65
2023/07/22 05:07:45;;;;;;;22.80;7.83;;;;;;;;;;6306984;22;20033;-66
2023/07/22 05:10:12;;;;;;;12.48;6.90;;;;;;;;;;6307180;22;20030;-65
2023/07/22 05:12:41;;;;;;;13.30;5.75;;;;;;;;;;6306775;22;20026;-68
2023/07/22 05:15:08;;;;;;;11.45;6.68;;;;;;;;;;6306883;22;20003;-66
2023/07/22 05:17:33;;;;;;;12.52;6.75;;;;;;;;;;6306742;22;20010;-66
2023/07/22 05:19:59;;;;;;;18.55;6.75;;;;;;;;;;6306555;22;20007;-65
2023/07/22 05:22:25;;;;;;;13.13;6.63;;;;;;;;;;6278820;22;20444;-64
2023/07/22 05:24:50;;;;;;;12.93;6.07;;;;;;;;;;6306733;22;20072;-64
2023/07/22 05:27:17;;;;;;;14.15;6.22;;;;;;;;;;6305101;22;20015;-65
2023/07/22 05:29:43;;;;;;;13.02;6.30;;;;;;;;;;6307079;22;20370;-64
2023/07/22 05:32:09;;;;;;;16.20;6.18;;;;;;;;;;6306201;22;20007;-65
2023/07/22 05:34:35;;;;;;;14.18;6.53;;;;;;;;;;6306497;22;20014;-64
2023/07/22 05:37:01;;;;;;;13.05;6.60;;;;;;;;;;6306482;22;20015;-65
2023/07/22 05:39:26;;;;;;;16.08;7.63;;;;;;;;;;6306696;22;20013;-64
2023/07/22 05:41:52;;;;;;;13.63;6.72;;;;;;;;;;6306625;22;20010;-65
2023/07/22 05:44:19;;;;;;;13.43;6.22;;;;;;;;;;6306248;22;20014;-65
2023/07/22 05:46:45;;;;;;;12.15;6.25;;;;;;;;;;6306906;22;20332;-64
2023/07/22 05:49:11;;;;;;;14.27;6.68;;;;;;;;;;6306197;22;20086;-65
2023/07/22 05:51:37;;;;;;;20.77;6.78;;;;;;;;;;6279013;22;20035;-64
2023/07/22 05:54:04;;;;;;;13.60;6.40;;;;;;;;;;6305887;22;20098;-64
2023/07/22 05:56:30;;;;;;;17.42;7.07;;;;;;;;;;6306264;22;20010;-64
2023/07/22 05:58:56;;;;;;;12.82;6.32;;;;;;;;;;6306197;22;20003;-65
2023/07/22 06:01:24;;;;;;;13.60;6.43;;;;;;;;;;6278905;22;20049;-65
2023/07/22 06:03:50;;;;;;;12.68;6.05;;;;;;;;;;6306419;22;20125;-65
2023/07/22 06:06:16;;;;;;;11.77;6.30;;;;;;;;;;6304414;22;20445;-65
2023/07/22 06:08:42;;;;;;;11.05;6.05;;;;;;;;;;6305754;22;20036;-65
2023/07/22 06:11:08;;;;;;;15.77;5.82;;;;;;;;;;6305504;22;20014;-66
2023/07/22 06:13:33;;;;;;;13.80;5.90;;;;;;;;;;6305751;22;20083;-65
2023/07/22 06:15:59;;;;;;;14.02;6.70;;;;;;;;;;6305401;22;19999;-66
2023/07/22 06:18:25;;;;;;;11.20;6.15;;;;;;;;;;6305563;22;20019;-66
2023/07/22 06:20:51;;;;;;;12.50;6.43;;;;;;;;;;6278592;22;20030;-66
2023/07/22 06:23:17;;;;;;;14.90;6.50;;;;;;;;;;6305464;22;20007;-65
2023/07/22 06:25:43;;;;;;;9.57;5.78;;;;;;;;;;6306266;22;20329;-66
2023/07/22 06:28:09;;;;;;;13.02;5.95;;;;;;;;;;6305476;22;20333;-65
2023/07/22 06:30:34;;;;;;;11.40;5.90;;;;;;;;;;6303830;22;20011;-65
2023/07/22 06:33:00;;;;;;;12.13;6.20;;;;;;;;;;6305265;22;20042;-65
2023/07/22 06:35:26;;;;;;;12.48;5.90;;;;;;;;;;6278126;22;20070;-67
2023/07/22 06:37:52;;;;;;;8.70;5.60;;;;;;;;;;6305291;22;20011;-65
2023/07/22 06:40:18;;;;;;;12.25;6.03;;;;;;;;;;6305433;22;20049;-66
2023/07/22 06:42:43;;;;;;;14.27;6.20;;;;;;;;;;6305410;22;20350;-66
2023/07/22 06:45:09;;;;;;;14.90;5.90;;;;;;;;;;6305186;22;20011;-65
2023/07/22 06:47:36;;;;;;;11.35;5.13;;;;;;;;;;6305634;22;20010;-65
2023/07/22 06:50:04;;;;;;;7.38;4.65;;;;;;;;;;6305922;22;20042;-66
2023/07/22 06:52:30;;;;;;;11.27;6.10;;;;;;;;;;6305322;22;20042;-66
2023/07/22 06:54:56;;;;;;;10.45;5.40;;;;;;;;;;6304147;22;20305;-66
2023/07/22 06:57:22;;;;;;;9.93;5.55;;;;;;;;;;6305434;22;20011;-66
2023/07/22 06:59:50;;;;;;;9.02;5.22;;;;;;;;;;6305545;22;20007;-65
2023/07/22 07:02:16;;;;;;;13.43;4.57;;;;;;;;;;6305657;22;20029;-66
2023/07/22 07:04:42;;;;;;;7.68;5.07;;;;;;;;;;6305064;22;20081;-66
2023/07/22 07:07:08;;;;;;;15.30;5.55;;;;;;;;;;6305396;22;20045;-65
2023/07/22 07:09:35;;;;;;;13.95;5.50;;;;;;;;;;6305728;22;20007;-66
2023/07/22 07:12:01;;;;;;;11.60;5.10;;;;;;;;;;6304883;22;20003;-66
2023/07/22 07:14:26;;;;;;;14.70;5.70;;;;;;;;;;6305383;22;20097;-66
2023/07/22 07:16:52;;;;;;;13.52;5.70;;;;;;;;;;6305392;22;20007;-65
2023/07/22 07:19:18;;;;;;;12.15;5.43;;;;;;;;;;6305280;22;20034;-66
2023/07/22 07:21:44;;;;;;;10.63;5.13;;;;;;;;;;6305722;22;20116;-66
2023/07/22 07:24:09;;;;;;;13.40;5.57;;;;;;;;;;6305627;22;20003;-66
2023/07/22 07:26:35;;;;;;;10.80;5.35;;;;;;;;;;6305130;22;20472;-65
2023/07/22 07:29:00;;;;;;;12.18;5.30;;;;;;;;;;6305397;22;20003;-65
2023/07/22 07:31:27;;;;;;;12.35;5.25;;;;;;;;;;6305279;22;20023;-65
2023/07/22 07:33:53;;;;;;;9.60;5.38;;;;;;;;;;6305570;22;20007;-65
2023/07/22 07:36:18;;;;;;;17.75;6.45;;;;;;;;;;6305242;22;20007;-65
2023/07/22 07:38:44;;;;;;;11.63;5.45;;;;;;;;;;6305072;22;20390;-65
2023/07/22 07:41:14;;;;;;;10.05;5.40;;;;;;;;;;6304275;22;20007;-65
2023/07/22 07:43:41;;;;;;;9.85;5.05;;;;;;;;;;6303657;22;20030;-65
2023/07/22 07:46:24;;;;;;;10.55;5.45;;;;;;;;;;6307306;22;20021;-65
2023/07/22 07:48:51;;;;;;;12.13;5.53;;;;;;;;;;6307858;22;20052;-65
2023/07/22 07:51:19;;;;;;;12.52;5.28;;;;;;;;;;6308114;22;20003;-66
2023/07/22 07:53:46;;;;;;;11.70;5.32;;;;;;;;;;6307576;22;20083;-66
2023/07/22 07:56:13;;;;;;;9.88;5.40;;;;;;;;;;6307410;22;20422;-65
2023/07/22 07:58:39;;;;;;;13.60;5.57;;;;;;;;;;6307764;22;20010;-66
2023/07/22 08:01:05;;;;;;;9.65;5.28;;;;;;;;;;6307595;22;20090;-64
2023/07/22 08:03:31;;;;;;;11.27;5.28;;;;;;;;;;6307213;22;20050;-64
2023/07/22 08:05:57;;;;;;;7.45;4.95;;;;;;;;;;6307617;22;20082;-64
2023/07/22 08:08:23;;;;;;;11.57;5.50;;;;;;;;;;6307911;22;20045;-64
2023/07/22 08:11:03;;;;;;;12.40;5.75;;;;;;;;;;6307507;22;20472;-65
2023/07/22 08:13:31;;;;;;;19.38;5.80;;;;;;;;;;6308080;22;20009;-65
2023/07/22 08:15:57;;;;;;;10.70;5.10;;;;;;;;;;6307182;22;20511;-66
2023/07/22 08:18:24;;;;;;;11.77;5.50;;;;;;;;;;6307393;22;20049;-66
2023/07/22 08:20:52;;;;;;;10.15;5.30;;;;;;;;;;6280096;22;20003;-65
2023/07/22 08:23:18;;;;;;;17.50;5.38;;;;;;;;;;6307132;22;20017;-65
2023/07/22 08:25:43;;;;;;;14.50;5.80;;;;;;;;;;6307492;22;20094;-66
2023/07/22 08:28:09;;;;;;;10.15;5.55;;;;;;;;;;6308246;22;19999;-65
2023/07/22 08:30:35;;;;;;;15.65;6.10;;;;;;;;;;6308338;22;20012;-66
2023/07/22 08:33:01;;;;;;;12.48;5.70;;;;;;;;;;6307510;22;20065;-65
2023/07/22 08:35:26;;;;;;;13.25;5.88;;;;;;;;;;6306942;22;20021;-65
2023/07/22 08:37:53;;;;;;;11.07;5.20;;;;;;;;;;6307744;22;20007;-66
2023/07/22 08:40:20;;;;;;;12.77;5.53;;;;;;;;;;6307086;22;20018;-65
2023/07/22 08:42:48;;;;;;;11.60;5.80;;;;;;;;;;6307394;22;20025;-65
2023/07/22 08:45:14;;;;;;;12.70;5.45;;;;;;;;;;6306803;22;20018;-65
2023/07/22 08:47:47;;;;;;;11.93;5.68;;;;;;;;;;6306240;22;20009;-66
2023/07/22 08:50:16;;;;;;;;;;;;;;;;;;6306337;22;20035;-66
2023/07/22 08:52:41;;;;;;;9.35;5.15;;;;;;;;;;6307148;22;19902;-65
2023/07/22 08:55:10;;;;;;;16.27;5.32;;;;;;;;;;6305193;22;20436;-65
2023/07/22 08:57:37;;;;;;;11.15;5.38;;;;;;;;;;6306917;22;20205;-65
2023/07/22 09:00:06;;;;;;;15.70;5.47;;;;;;;;;;6306569;22;20010;-65
2023/07/22 09:02:34;;;;;;;10.68;5.57;;;;;;;;;;6306541;22;20007;-66
2023/07/22 09:04:59;;;;;;;13.70;5.03;;;;;;;;;;6279653;22;20007;-66
2023/07/22 09:07:26;;;;;;;14.75;5.40;;;;;;;;;;6305830;22;20452;-65
2023/07/22 09:09:53;;;;;;;13.10;5.03;;;;;;;;;;6306894;22;20378;-66
2023/07/22 09:12:20;;;;;;;17.17;5.05;;;;;;;;;;6306099;22;20433;-65
2023/07/22 09:14:48;;;;;;;15.38;5.22;;;;;;;;;;6306837;22;20072;-66
2023/07/22 09:17:13;;;;;;;14.75;5.03;;;;;;;;;;6279207;22;20010;-65
2023/07/22 09:19:39;;;;;;;16.27;5.60;;;;;;;;;;6307402;22;20082;-66
2023/07/22 09:22:05;;;;;;;11.85;5.00;;;;;;;;;;6306141;22;20351;-67
2023/07/22 09:24:31;;;;;;;12.77;5.10;;;;;;;;;;6306190;22;20087;-66
2023/07/22 09:26:58;;;;;;;10.05;4.95;;;;;;;;;;6306340;22;20011;-67
2023/07/22 09:29:35;;;;;;;13.93;4.90;;;;;;;;;;6306370;22;20049;-66
2023/07/22 09:32:01;;;;;;;11.48;5.20;;;;;;;;;;6306609;22;20318;-68
2023/07/22 09:34:27;;;;;;;16.52;5.18;;;;;;;;;;6306792;22;20081;-67
2023/07/22 09:36:54;;;;;;;15.05;5.45;;;;;;;;;;6306588;22;20007;-66
2023/07/22 09:39:21;;;;;;;13.60;5.50;;;;;;;;;;6306458;22;20010;-65
2023/07/22 09:41:47;;;;;;;10.60;4.78;;;;;;;;;;6306385;22;20014;-66
2023/07/22 09:44:13;;;;;;;11.57;5.03;;;;;;;;;;6305872;22;20003;-65
2023/07/22 09:46:39;;;;;;;12.15;4.95;;;;;;;;;;6305931;22;20018;-66
2023/07/22 09:49:07;;;;;;;14.63;4.40;;;;;;;;;;6306079;22;20346;-65
2023/07/22 09:51:40;;;;;;;11.68;5.75;;;;;;;;;;6305815;22;20552;-67
2023/07/22 09:54:07;;;;;;;15.52;4.80;;;;;;;;;;6306057;22;20007;-66
2023/07/22 09:56:44;;;;;;;9.55;4.78;;;;;;;;;;6305787;22;20022;-66
2023/07/22 09:59:11;;;;;;;13.32;5.35;;;;;;;;;;6306136;22;20007;-66
2023/07/22 10:01:39;;;;;;;14.60;4.80;;;;;;;;;;6305899;22;20011;-66
2023/07/22 10:04:06;;;;;;;15.30;5.20;;;;;;;;;;6305664;22;20003;-67
2023/07/22 10:06:32;;;;;;;14.40;5.38;;;;;;;;;;6305680;22;20030;-67
2023/07/22 10:09:07;;;;;;;13.48;5.63;;;;;;;;;;6278634;22;20031;-65
2023/07/22 10:11:34;;;;;;;13.77;5.30;;;;;;;;;;6306180;22;20030;-65
2023/07/22 10:14:04;;;;;;;11.25;5.30;;;;;;;;;;6305560;22;19999;-65
2023/07/22 10:16:30;;;;;;;17.27;5.65;;;;;;;;;;6306076;22;20003;-66
2023/07/22 10:18:57;;;;;;;12.55;5.43;;;;;;;;;;6305336;22;20031;-66
2023/07/22 10:21:24;;;;;;;18.52;6.18;;;;;;;;;;6279659;22;20065;-68
2023/07/22 10:23:51;;;;;;;15.25;5.28;;;;;;;;;;6306365;22;20037;-66
2023/07/22 10:26:19;;;;;;;17.95;5.43;;;;;;;;;;6278714;22;20011;-65
2023/07/22 10:28:46;;;;;;;15.45;5.65;;;;;;;;;;6305957;22;20050;-65
2023/07/22 10:31:13;;;;;;;17.70;6.07;;;;;;;;;;6305813;22;20465;-66
2023/07/22 10:33:39;;;;;;;14.50;5.50;;;;;;;;;;6278036;22;20030;-66
2023/07/22 10:36:13;;;;;;;13.38;5.25;;;;;;;;;;6305905;22;20026;-66
2023/07/22 10:38:38;;;;;;;14.02;5.00;;;;;;;;;;6305622;22;20009;-65
2023/07/22 10:41:16;;;;;;;11.57;4.72;;;;;;;;;;6305654;22;20007;-65
2023/07/22 10:43:56;;;;;;;18.10;5.03;;;;;;;;;;6305600;22;20014;-65
2023/07/22 10:46:33;;;;;;;10.93;4.80;;;;;;;;;;6305688;22;20007;-65
2023/07/22 10:49:17;;;;;;;16.60;5.45;;;;;;;;;;6305756;22;20445;-65
2023/07/22 10:51:50;;;;;;;17.65;5.32;;;;;;;;;;6278523;22;20003;-66
2023/07/22 10:54:36;;;;;;;14.88;5.22;;;;;;;;;;6305364;22;20022;-65
2023/07/22 10:57:28;;;;;;;14.50;5.28;;;;;;;;;;6305485;22;20004;-66
2023/07/22 10:59:55;;;;;;;18.45;5.13;;;;;;;;;;6300797;22;20449;-65
2023/07/22 11:02:29;;;;;;;15.93;4.78;;;;;;;;;;6305311;22;20006;-66
2023/07/22 11:04:59;;;;;;;18.58;5.40;;;;;;;;;;6305613;22;20449;-66
2023/07/22 11:07:47;;;;;;;13.90;4.95;;;;;;;;;;6304984;22;20003;-66
2023/07/22 11:10:18;;;;;;;12.30;5.13;;;;;;;;;;6305994;22;20341;-65
2023/07/22 11:12:45;;;;;;;18.02;5.35;;;;;;;;;;6278074;22;20023;-65
2023/07/22 11:15:13;;;;;;;12.57;4.63;;;;;;;;;;6305894;22;20030;-65
2023/07/22 11:17:39;;;;;;;17.20;4.85;;;;;;;;;;6305481;22;20090;-65
2023/07/22 11:20:04;;;;;;;19.40;5.25;;;;;;;;;;6307916;22;20112;-65
2023/07/22 11:22:31;;;;;;;14.05;5.68;;;;;;;;;;6307338;22;20014;-65
2023/07/22 11:25:00;;;;;;;20.80;5.32;;;;;;;;;;6307490;22;20011;-65
2023/07/22 11:27:26;;;;;;;24.92;5.65;;;;;;;;;;6307285;22;20094;-66
2023/07/22 11:29:51;;;;;;;14.20;5.28;;;;;;;;;;6307679;22;20434;-65
2023/07/22 11:32:21;;;;;;;21.55;5.75;;;;;;;;;;6307601;22;20007;-67
2023/07/22 11:34:47;;;;;;;22.20;4.90;;;;;;;;;;6281012;22;20011;-64
2023/07/22 11:37:14;;;;;;;16.92;4.90;;;;;;;;;;6307680;22;20085;-65
2023/07/22 11:39:42;;;;;;;17.17;4.88;;;;;;;;;;6307784;22;20033;-65
2023/07/22 11:42:08;;;;;;;19.85;4.93;;;;;;;;;;6279479;22;20007;-66
2023/07/22 11:44:34;;;;;;;33.78;5.68;;;;;;;;;;6307185;22;20011;-65
2023/07/22 11:47:09;;;;;;;18.40;5.30;;;;;;;;;;6279964;22;20034;-65
2023/07/22 11:49:39;;;;;;;21.75;5.65;;;;;;;;;;6307777;22;20011;-66
2023/07/22 11:52:09;;;;;;;18.15;4.63;;;;;;;;;;6307417;22;20083;-65
2023/07/22 11:54:39;;;;;;;15.93;5.30;;;;;;;;;;6279837;22;20011;-66
2023/07/22 11:57:22;;;;;;;16.50;5.55;;;;;;;;;;6306665;22;20000;-65
2023/07/22 11:59:53;;;;;;;17.70;5.05;;;;;;;;;;6307373;22;20326;-65
2023/07/22 12:02:23;;;;;;;21.52;4.97;;;;;;;;;;6306892;22;20034;-66
2023/07/22 12:04:58;;;;;;;24.27;5.20;;;;;;;;;;6279941;22;20007;-66
2023/07/22 12:07:30;;;;;;;19.63;5.10;;;;;;;;;;6306987;22;20007;-65
2023/07/22 12:09:59;;;;;;;17.67;5.60;;;;;;;;;;6306727;22;20046;-66
2023/07/22 12:12:45;;;;;;;20.42;5.57;;;;;;;;;;6306898;22;20120;-65
2023/07/22 12:15:18;;;;;;;26.70;5.82;;;;;;;;;;6306515;22;20082;-66
2023/07/22 12:17:50;;;;;;;25.60;5.95;;;;;;;;;;6307390;22;20011;-66
2023/07/22 12:20:17;;;;;;;17.98;4.50;;;;;;;;;;6306375;22;20015;-65
2023/07/22 12:22:43;;;;;;;25.20;5.50;;;;;;;;;;6307229;22;20039;-65
2023/07/22 12:25:09;;;;;;;20.40;4.97;;;;;;;;;;6307262;22;20413;-65
2023/07/22 12:27:35;;;;;;;22.25;5.82;;;;;;;;;;6305907;22;20014;-66
2023/07/22 12:30:02;;;;;;;18.52;5.15;;;;;;;;;;6307211;22;20448;-66
2023/07/22 12:32:28;;;;;;;27.75;5.50;;;;;;;;;;6307384;22;20053;-67
2023/07/22 12:34:54;;;;;;;20.20;5.28;;;;;;;;;;6280466;22;20346;-67
2023/07/22 12:37:20;;;;;;;20.80;5.28;;;;;;;;;;6307336;22;20360;-66
2023/07/22 12:39:45;;;;;;;24.58;4.80;;;;;;;;;;6307371;22;20007;-66
2023/07/22 12:42:11;;;;;;;23.65;5.38;;;;;;;;;;6307224;22;20006;-67
2023/07/22 12:44:37;;;;;;;20.88;5.00;;;;;;;;;;6307322;22;20132;-65
2023/07/22 12:47:03;;;;;;;31.60;5.30;;;;;;;;;;6307072;22;20007;-67
2023/07/22 12:49:29;;;;;;;23.98;4.78;;;;;;;;;;6307345;22;20015;-66
2023/07/22 12:51:54;;;;;;;23.85;5.35;;;;;;;;;;6280152;22;20372;-66
2023/07/22 12:54:20;;;;;;;24.80;5.40;;;;;;;;;;6307303;22;20011;-66
2023/07/22 12:56:46;;;;;;;25.65;5.35;;;;;;;;;;6307308;22;20448;-66
2023/07/22 12:59:11;;;;;;;23.10;5.07;;;;;;;;;;6307408;22;20349;-65
2023/07/22 13:01:39;;;;;;;21.13;5.65;;;;;;;;;;6308357;22;20003;-65
2023/07/22 13:04:05;;;;;;;23.38;5.47;;;;;;;;;;6307672;22;20033;-66
2023/07/22 13:06:30;;;;;;;29.00;5.68;;;;;;;;;;6307353;22;20078;-65
2023/07/22 13:08:56;;;;;;;27.60;6.38;;;;;;;;;;6307030;22;20086;-66
2023/07/22 13:11:23;;;;;;;21.88;5.18;;;;;;;;;;6306979;22;20045;-66
2023/07/22 13:13:49;;;;;;;24.88;5.38;;;;;;;;;;6306829;22;20381;-67
2023/07/22 13:16:15;;;;;;;23.73;6.70;;;;;;;;;;6280081;22;20007;-67
2023/07/22 13:18:41;;;;;;;24.38;5.20;;;;;;;;;;6254341;22;20015;-66
2023/07/22 13:21:07;;;;;;;26.33;4.82;;;;;;;;;;6306700;22;20007;-66
2023/07/22 13:23:33;;;;;;;18.40;4.97;;;;;;;;;;6306674;22;20008;-66
2023/07/22 13:25:59;;;;;;;21.98;4.40;;;;;;;;;;6306973;22;20007;-66
2023/07/22 13:28:24;;;;;;;24.75;5.00;;;;;;;;;;6307680;22;20364;-66
2023/07/22 13:30:50;;;;;;;24.08;4.80;;;;;;;;;;6306766;22;20088;-66
2023/07/22 13:33:16;;;;;;;22.20;5.35;;;;;;;;;;6306494;22;20003;-65
2023/07/22 13:35:42;;;;;;;31.88;5.28;;;;;;;;;;6307474;22;20004;-66
2023/07/22 13:38:08;;;;;;;28.05;5.45;;;;;;;;;;6303138;22;20323;-66
2023/07/22 13:40:34;;;;;;;26.80;5.35;;;;;;;;;;6302343;22;20010;-65
2023/07/22 13:43:00;;;;;;;22.33;5.07;;;;;;;;;;6302121;22;20022;-66
2023/07/22 13:45:26;;;;;;;25.77;5.43;;;;;;;;;;6303391;22;20445;-65
2023/07/22 13:47:52;;;;;;;27.63;5.40;;;;;;;;;;6303580;22;20026;-66
2023/07/22 13:50:19;;;;;;;23.63;4.63;;;;;;;;;;6303510;22;20349;-66
2023/07/22 13:52:44;;;;;;;16.90;4.78;;;;;;;;;;6301235;22;20517;-67
2023/07/22 13:55:10;;;;;;;21.77;5.18;;;;;;;;;;6276842;22;20075;-67
2023/07/22 13:57:36;;;;;;;22.63;4.70;;;;;;;;;;6304661;22;20007;-66
2023/07/22 14:00:08;;;;;;;27.52;5.47;;;;;;;;;;6306180;22;20460;-67
2023/07/22 14:02:38;;;;;;;18.75;4.35;;;;;;;;;;6305654;22;20105;-67
2023/07/22 14:05:04;;;;;;;23.35;5.45;;;;;;;;;;6306067;22;20433;-65
2023/07/22 14:07:30;;;;;;;18.48;4.82;;;;;;;;;;6305709;22;20464;-66
2023/07/22 14:09:55;;;;;;;24.42;5.15;;;;;;;;;;6305837;22;19995;-67
2023/07/22 14:12:21;;;;;;;24.20;5.05;;;;;;;;;;6305331;22;20014;-65
2023/07/22 14:14:47;;;;;;;22.73;4.63;;;;;;;;;;6279109;22;20013;-67
2023/07/22 14:17:13;;;;;;;21.42;5.03;;;;;;;;;;6306011;22;20069;-66
2023/07/22 14:19:38;;;;;;;19.42;4.35;;;;;;;;;;6306456;22;20007;-66
2023/07/22 14:22:04;;;;;;;23.42;5.93;;;;;;;;;;6278013;22;20134;-64
2023/07/22 14:24:30;;;;;;;24.92;5.18;;;;;;;;;;6303723;22;20040;-66
2023/07/22 14:26:56;;;;;;;27.33;5.88;;;;;;;;;;6303848;22;20022;-66
2023/07/22 14:29:22;;;;;;;22.35;4.88;;;;;;;;;;6304585;22;20031;-66
2023/07/22 14:31:47;;;;;;;24.60;4.82;;;;;;;;;;6304052;22;20358;-66